Cabot Strait: Past 24 Hour Conditions

 

Îles de la Madeleine Airport

08:00 AM ADT 19 September 2014
This table is a summary of hourly weather conditions for the past 24 hours.
Date / Time
(ADT)
Wind(knots) Conditions Visibility(km) Pressure(kPa) Air tempC) Relative humidity(%) Dew pointC)
19 September 2014
8:00 WNW 18 gust 26 Partly Cloudy 32 101.7 8 49 -2
7:00 WNW 17 gust 26 Partly Cloudy 24 101.6 8 50 -2
6:00 WNW 16 gust 23 Mainly Clear 24 101.5 8 49 -2
5:00 WNW 15 gust 20 N/A N/A 101.4 8 56 0
4:00 WNW 16 N/A N/A 101.4 8 57 0
3:00 WNW 17 N/A N/A 101.4 9 57 1
2:00 WNW 13 N/A N/A 101.4 9 63 2
1:00 NW 11 N/A N/A 101.4 8 79 4
0:00 NNW 11 N/A N/A 101.4 8 78 5
18 September 2014
23:00 NNW 14 gust 21 Mainly Clear 24 101.4 9 72 4
22:00 NNW 14 gust 20 Partly Cloudy 24 101.4 10 73 5
21:00 NW 14 Partly Cloudy 24 101.4 10 73 5
20:00 NNW 16 Mostly Cloudy 24 101.3 10 78 6
19:00 NNW 17 Light Rainshower 32 101.3 10 83 7
18:00 NNW 17 Light Rainshower 24 101.2 11 87 9
17:00 NW 14 gust 20 Light Rainshower 24 101.1 12 85 10
16:00 WNW 13 gust 21 Light Rainshower 32 101.1 13 82 10
15:00 WSW 14 gust 24 Mostly Cloudy 32 101.0 17 66 11
14:00 SW 12 gust 20 Partly Cloudy 32 101.0 18 62 11
13:00 SSW 12 gust 22 Partly Cloudy 32 101.1 18 62 11
12:00 SW 12 gust 21 Partly Cloudy 32 101.1 18 62 11
11:00 SSW 13 gust 22 Partly Cloudy 32 101.1 17 67 11
10:00 SSW 14 gust 22 Partly Cloudy 32 101.2 16 69 11
9:00 S 10 gust 19 Partly Cloudy 32 101.2 16 83 13
8:00 SSE 12 gust 18 Partly Cloudy 32 101.2 14 82 11
 
Map of Atlantic - Newfoundland marine weather areas Southwestern Grand Banks - 44138 Banquereau - 44139 Tail of the Bank - 44140 Nickerson Bank - 44251 Northeast Burgeo Bank - 44255 Blanc-Sablon Airport Cap Whittle Chevery Natashquan Airport Heath Point Miscou Island Grand Étang Ingonish Beach North Mountain St.Paul Island J.A. Douglas McCurdy Sydney Airport Charlottetown Airport East Point North Cape Argentia Bonavista Burgeo Cape Race Corner Brook Daniel's Harbour Englee Ferolle Point La Scie Port aux Basques Rocky Harbour Sagona Island St. Anthony Airport St. John's Int'l Airport St. Lawrence Stephenville Airport Twillingate Winterland Wreckhouse Cartwright Airport Mary's Harbour Grates Cove Pool's Island Marticot Island Long Pond Îles de la Madeleine Airport
Legend: buoyBuoy land stationLand Station